Gene Machine — WDF7123 — position and weather

sailwx.info

Track history (hours):
 
Tides and Currents Weather Stations Pressure Air Temp Water Temp Dewpoint Dewpoint Depression Visibility Wind Speed Wind Dir Waves Ship Positions

Gene Machine

More information available from US FCC via Universal Licensing System and Coast Guard Vessel Documentation Center.

Last reported at 2014-Aug-22 19:32 UTC. Time now 2014-Aug-22 19:46 UTC.
Position N 44°06' E 009°50'.

; draft 2.4 m.

Type: Pleasure craft. MMSI: 367481320.

Date/timePositionNaut miles runAvg speedWind from/ knotsBaromVisibWave heightAir tempDewpointWater temp
2014-Aug-22 19:32N 44°06' E 009°50'0 0.0
2014-Aug-22 18:32N 44°06' E 009°50'0 0.0
2014-Aug-22 17:32N 44°06' E 009°50'3 3.2
2014-Aug-22 16:29N 44°03' E 009°51'0 0.0
2014-Aug-22 15:32N 44°03' E 009°51'0 0.0
2014-Aug-22 14:32N 44°03' E 009°51'0 0.0
2014-Aug-22 13:32N 44°03' E 009°51'0 0.0
2014-Aug-22 12:32N 44°03' E 009°51'0 0.0
2014-Aug-22 11:32N 44°03' E 009°51'0 0.0
2014-Aug-22 10:32N 44°03' E 009°51'0 0.0
2014-Aug-22 09:32N 44°03' E 009°51'0 0.0
2014-Aug-22 08:33N 44°03' E 009°51'2 1.7
2014-Aug-22 07:34N 44°04' E 009°51'2 1.7
2014-Aug-22 06:31N 44°06' E 009°50'0 0.0
2014-Aug-22 05:28N 44°06' E 009°50'0 0.0
2014-Aug-22 04:31N 44°06' E 009°50'0 0.0
2014-Aug-22 03:31N 44°06' E 009°50'0 0.0
2014-Aug-22 02:31N 44°06' E 009°50'0 0.0
2014-Aug-22 01:31N 44°06' E 009°50'0 0.0
2014-Aug-22 00:31N 44°06' E 009°50'0 0.0
2014-Aug-21 23:28N 44°06' E 009°50'0 0.0
2014-Aug-21 22:31N 44°06' E 009°50'0 0.0
2014-Aug-21 21:31N 44°06' E 009°50'0 0.0
2014-Aug-21 20:31N 44°06' E 009°50'0 0.0
2014-Aug-21 19:31N 44°06' E 009°50'0 0.0
2014-Aug-21 18:31N 44°06' E 009°50'0 0.0
2014-Aug-21 17:31N 44°06' E 009°50'0 0.0
2014-Aug-21 16:31N 44°06' E 009°50'0 0.0
2014-Aug-21 15:31N 44°06' E 009°50'0 0.0
2014-Aug-21 14:31N 44°06' E 009°50'0 0.0
2014-Aug-21 13:31N 44°06' E 009°50'0 0.0
2014-Aug-21 12:31N 44°06' E 009°50'0 0.0
2014-Aug-21 11:31N 44°06' E 009°50'0 0.0
2014-Aug-21 10:31N 44°06' E 009°50'0 0.0
2014-Aug-21 09:31N 44°06' E 009°50'0 0.0
2014-Aug-21 08:31N 44°06' E 009°50'0 0.0
2014-Aug-21 07:31N 44°06' E 009°50'0 0.0
2014-Aug-21 06:31N 44°06' E 009°50'0 0.0
2014-Aug-21 05:31N 44°06' E 009°50'0 0.0
2014-Aug-21 04:31N 44°06' E 009°50'0 0.0
2014-Aug-21 03:31N 44°06' E 009°50'0 0.0
2014-Aug-21 02:31N 44°06' E 009°50'0 0.0
2014-Aug-21 01:28N 44°06' E 009°50'0 0.0
2014-Aug-21 00:31N 44°06' E 009°50'0 0.0
2014-Aug-20 23:31N 44°06' E 009°50'0 0.0
2014-Aug-20 22:31N 44°06' E 009°50'0 0.0
2014-Aug-20 21:31N 44°06' E 009°50'0 0.0
2014-Aug-20 20:31N 44°06' E 009°50'0 0.0
2014-Aug-20 19:28N 44°06' E 009°50'0 0.0
2014-Aug-20 18:31N 44°06' E 009°50'0 0.0
2014-Aug-20 17:31N 44°06' E 009°50'0 0.0
2014-Aug-20 16:31N 44°06' E 009°50'0 0.0
2014-Aug-20 15:31N 44°06' E 009°50'0 0.0
2014-Aug-20 14:31N 44°06' E 009°50'0 0.0
2014-Aug-20 13:31N 44°06' E 009°50'2 1.7
2014-Aug-20 12:33N 44°06' E 009°52'0 0.0
2014-Aug-20 11:33N 44°06' E 009°52'2 1.6
2014-Aug-20 10:33N 44°06' E 009°50'0 0.0
2014-Aug-20 09:31N 44°06' E 009°50'0 0.0
2014-Aug-20 08:31N 44°06' E 009°50'0 0.0
2014-Aug-20 07:31N 44°06' E 009°50'0 0.0
2014-Aug-20 06:31N 44°06' E 009°50'0 0.0
2014-Aug-20 05:28N 44°06' E 009°50'0 0.0
2014-Aug-20 04:31N 44°06' E 009°50'0 0.0
2014-Aug-20 03:31N 44°06' E 009°50'0 0.0
2014-Aug-20 02:31N 44°06' E 009°50'0 0.0
2014-Aug-20 01:31N 44°06' E 009°50'0 0.0
2014-Aug-20 00:31N 44°06' E 009°50'0 0.0
2014-Aug-19 23:31N 44°06' E 009°50'0 0.0
2014-Aug-19 22:31N 44°06' E 009°50'0 0.0
2014-Aug-19 21:31N 44°06' E 009°50'0 0.0
2014-Aug-19 20:31N 44°06' E 009°50'0 0.0
2014-Aug-19 19:31N 44°06' E 009°50'0 0.0
2014-Aug-19 18:31N 44°06' E 009°50'0 0.3
2014-Aug-19 17:32N 44°06' E 009°50'0 0.0
2014-Aug-19 16:32N 44°06' E 009°50'0 0.0
2014-Aug-19 15:32N 44°06' E 009°50'4 4.1
2014-Aug-19 14:34N 44°02' E 009°52'1616.4
2014-Aug-19 13:34N 43°47' E 010°01'1616.2
2014-Aug-19 12:33N 43°32' E 010°09'1615.4
2014-Aug-19 11:33N 43°17' E 010°16'  
2014-Aug-12 20:06N 40°33' E 014°15'  
Track history (hours):
 
Tides and Currents Weather Stations Pressure Air Temp Water Temp Dewpoint Dewpoint Depression Visibility Wind Speed Wind Dir Waves Ship Positions

Gene Machine

More information available from US FCC via Universal Licensing System and Coast Guard Vessel Documentation Center.

Last reported at 2014-Aug-22 19:32 UTC. Time now 2014-Aug-22 19:46 UTC.
Position N 44°06' E 009°50'.

; draft 2.4 m.

Type: Pleasure craft. MMSI: 367481320.

Date/timePositionNaut miles runAvg speedWind from/ knotsBaromVisibWave heightAir tempDewpointWater temp
2014-Aug-22 19:32N 44°06' E 009°50'0 0.0
2014-Aug-22 18:32N 44°06' E 009°50'0 0.0
2014-Aug-22 17:32N 44°06' E 009°50'3 3.2
2014-Aug-22 16:29N 44°03' E 009°51'0 0.0
2014-Aug-22 15:32N 44°03' E 009°51'0 0.0
2014-Aug-22 14:32N 44°03' E 009°51'0 0.0
2014-Aug-22 13:32N 44°03' E 009°51'0 0.0
2014-Aug-22 12:32N 44°03' E 009°51'0 0.0
2014-Aug-22 11:32N 44°03' E 009°51'0 0.0
2014-Aug-22 10:32N 44°03' E 009°51'0 0.0
2014-Aug-22 09:32N 44°03' E 009°51'0 0.0
2014-Aug-22 08:33N 44°03' E 009°51'2 1.7
2014-Aug-22 07:34N 44°04' E 009°51'2 1.7
2014-Aug-22 06:31N 44°06' E 009°50'0 0.0
2014-Aug-22 05:28N 44°06' E 009°50'0 0.0
2014-Aug-22 04:31N 44°06' E 009°50'0 0.0
2014-Aug-22 03:31N 44°06' E 009°50'0 0.0
2014-Aug-22 02:31N 44°06' E 009°50'0 0.0
2014-Aug-22 01:31N 44°06' E 009°50'0 0.0
2014-Aug-22 00:31N 44°06' E 009°50'0 0.0
2014-Aug-21 23:28N 44°06' E 009°50'0 0.0
2014-Aug-21 22:31N 44°06' E 009°50'0 0.0
2014-Aug-21 21:31N 44°06' E 009°50'0 0.0
2014-Aug-21 20:31N 44°06' E 009°50'0 0.0
2014-Aug-21 19:31N 44°06' E 009°50'0 0.0
2014-Aug-21 18:31N 44°06' E 009°50'0 0.0
2014-Aug-21 17:31N 44°06' E 009°50'0 0.0
2014-Aug-21 16:31N 44°06' E 009°50'0 0.0
2014-Aug-21 15:31N 44°06' E 009°50'0 0.0
2014-Aug-21 14:31N 44°06' E 009°50'0 0.0
2014-Aug-21 13:31N 44°06' E 009°50'0 0.0
2014-Aug-21 12:31N 44°06' E 009°50'0 0.0
2014-Aug-21 11:31N 44°06' E 009°50'0 0.0
2014-Aug-21 10:31N 44°06' E 009°50'0 0.0
2014-Aug-21 09:31N 44°06' E 009°50'0 0.0
2014-Aug-21 08:31N 44°06' E 009°50'0 0.0
2014-Aug-21 07:31N 44°06' E 009°50'0 0.0
2014-Aug-21 06:31N 44°06' E 009°50'0 0.0
2014-Aug-21 05:31N 44°06' E 009°50'0 0.0
2014-Aug-21 04:31N 44°06' E 009°50'0 0.0
2014-Aug-21 03:31N 44°06' E 009°50'0 0.0
2014-Aug-21 02:31N 44°06' E 009°50'0 0.0
2014-Aug-21 01:28N 44°06' E 009°50'0 0.0
2014-Aug-21 00:31N 44°06' E 009°50'0 0.0
2014-Aug-20 23:31N 44°06' E 009°50'0 0.0
2014-Aug-20 22:31N 44°06' E 009°50'0 0.0
2014-Aug-20 21:31N 44°06' E 009°50'0 0.0
2014-Aug-20 20:31N 44°06' E 009°50'0 0.0
2014-Aug-20 19:28N 44°06' E 009°50'0 0.0
2014-Aug-20 18:31N 44°06' E 009°50'0 0.0
2014-Aug-20 17:31N 44°06' E 009°50'0 0.0
2014-Aug-20 16:31N 44°06' E 009°50'0 0.0
2014-Aug-20 15:31N 44°06' E 009°50'0 0.0
2014-Aug-20 14:31N 44°06' E 009°50'0 0.0
2014-Aug-20 13:31N 44°06' E 009°50'2 1.7
2014-Aug-20 12:33N 44°06' E 009°52'0 0.0
2014-Aug-20 11:33N 44°06' E 009°52'2 1.6
2014-Aug-20 10:33N 44°06' E 009°50'0 0.0
2014-Aug-20 09:31N 44°06' E 009°50'0 0.0
2014-Aug-20 08:31N 44°06' E 009°50'0 0.0
2014-Aug-20 07:31N 44°06' E 009°50'0 0.0
2014-Aug-20 06:31N 44°06' E 009°50'0 0.0
2014-Aug-20 05:28N 44°06' E 009°50'0 0.0
2014-Aug-20 04:31N 44°06' E 009°50'0 0.0
2014-Aug-20 03:31N 44°06' E 009°50'0 0.0
2014-Aug-20 02:31N 44°06' E 009°50'0 0.0
2014-Aug-20 01:31N 44°06' E 009°50'0 0.0
2014-Aug-20 00:31N 44°06' E 009°50'0 0.0
2014-Aug-19 23:31N 44°06' E 009°50'0 0.0
2014-Aug-19 22:31N 44°06' E 009°50'0 0.0
2014-Aug-19 21:31N 44°06' E 009°50'0 0.0
2014-Aug-19 20:31N 44°06' E 009°50'0 0.0
2014-Aug-19 19:31N 44°06' E 009°50'0 0.0
2014-Aug-19 18:31N 44°06' E 009°50'0 0.3
2014-Aug-19 17:32N 44°06' E 009°50'0 0.0
2014-Aug-19 16:32N 44°06' E 009°50'0 0.0
2014-Aug-19 15:32N 44°06' E 009°50'4 4.1
2014-Aug-19 14:34N 44°02' E 009°52'1616.4
2014-Aug-19 13:34N 43°47' E 010°01'1616.2
2014-Aug-19 12:33N 43°32' E 010°09'1615.4
2014-Aug-19 11:33N 43°17' E 010°16'  
2014-Aug-12 20:06N 40°33' E 014°15'  

Dump ship's entire track history